createdAt,value
2022-10-18T04:03:35.124Z,7.95
2022-10-18T04:07:46.676Z,9.15
2022-10-18T04:11:58.210Z,10.13
2022-10-18T04:16:09.713Z,9.18
2022-10-18T04:20:21.242Z,10.38
2022-10-18T04:24:33.030Z,8.02
2022-10-18T04:28:45.144Z,7.82
2022-10-18T04:32:56.716Z,10.27
2022-10-18T04:37:08.310Z,7.93
2022-10-18T04:41:19.840Z,8.35
2022-10-18T04:45:31.375Z,9.55
2022-10-18T04:49:42.920Z,8.48
2022-10-18T04:53:54.907Z,8.93
2022-10-18T04:58:06.428Z,7.60
2022-10-18T05:02:17.978Z,8.55
2022-10-18T05:06:29.557Z,7.00
2022-10-18T05:10:41.100Z,8.15
2022-10-18T05:14:52.618Z,9.05
2022-10-18T05:19:05.660Z,8.43
2022-10-18T05:23:17.208Z,11.43
2022-10-18T05:27:29.200Z,8.75
2022-10-18T05:31:40.705Z,13.40
2022-10-18T05:35:52.198Z,12.00
2022-10-18T05:40:04.311Z,9.73
2022-10-18T05:44:15.895Z,8.48
2022-10-18T05:48:27.542Z,8.93
2022-10-18T05:52:39.054Z,8.32
2022-10-18T05:56:50.608Z,12.00
2022-10-18T06:01:03.122Z,9.63
2022-10-18T06:05:14.648Z,8.98
2022-10-18T06:09:26.321Z,12.10
2022-10-18T06:13:45.980Z,9.75
2022-10-18T06:17:59.021Z,7.47
2022-10-18T06:22:11.505Z,10.00
2022-10-18T06:26:23.398Z,7.63
2022-10-18T06:30:35.141Z,14.68
2022-10-18T06:34:46.637Z,12.73
2022-10-18T06:38:59.904Z,8.45
2022-10-18T06:43:20.652Z,10.27
2022-10-18T06:47:33.012Z,13.35
2022-10-18T06:51:44.659Z,10.30
2022-10-18T06:56:14.324Z,7.65
2022-10-18T07:00:25.995Z,8.73
2022-10-18T07:04:37.593Z,11.57
2022-10-18T07:08:50.265Z,9.77
2022-10-18T07:13:30.482Z,10.85
2022-10-18T07:17:33.481Z,10.18
2022-10-18T07:21:45.157Z,9.85
2022-10-18T07:25:56.708Z,9.73
2022-10-18T07:30:10.036Z,8.88
2022-10-18T07:34:21.539Z,9.73
2022-10-18T07:38:33.318Z,11.07
2022-10-18T07:42:44.818Z,10.60
2022-10-18T07:46:56.296Z,11.02
2022-10-18T07:51:08.874Z,12.30
2022-10-18T07:55:20.772Z,10.63
2022-10-18T07:59:32.468Z,10.90
2022-10-18T08:03:44.191Z,7.82
2022-10-18T08:07:56.212Z,11.57
2022-10-18T08:12:07.733Z,11.50
2022-10-18T08:16:27.656Z,11.85
2022-10-18T08:20:44.240Z,10.88
2022-10-18T08:24:55.763Z,10.43
2022-10-18T08:29:21.875Z,12.55
2022-10-18T08:33:36.250Z,11.80
2022-10-18T08:37:48.485Z,11.18
2022-10-18T08:42:12.199Z,9.13
2022-10-18T08:46:24.531Z,10.27
2022-10-18T08:50:37.763Z,9.80
2022-10-18T08:55:00.053Z,9.60
2022-10-18T08:59:12.900Z,14.25
2022-10-18T09:03:56.733Z,11.25
2022-10-18T09:08:41.579Z,6.43
2022-10-18T09:13:02.223Z,6.72
2022-10-18T09:17:54.152Z,8.27
2022-10-18T09:22:13.920Z,4.68
2022-10-18T09:26:25.984Z,5.22
2022-10-18T09:30:37.454Z,3.60
2022-10-18T09:34:59.648Z,3.65
2022-10-18T09:39:14.410Z,4.35
2022-10-18T09:43:42.252Z,4.57
2022-10-18T09:48:05.526Z,2.97
2022-10-18T09:52:28.227Z,2.58
2022-10-18T09:56:52.227Z,4.65
2022-10-18T10:01:04.038Z,2.22
2022-10-18T10:05:15.766Z,3.47
2022-10-18T10:09:36.051Z,3.70
2022-10-18T10:13:48.444Z,1.98
2022-10-18T10:18:06.079Z,2.78
2022-10-18T10:22:35.157Z,2.65
2022-10-18T10:26:47.259Z,3.78
2022-10-18T10:31:29.356Z,2.38
2022-10-18T10:35:53.047Z,4.30
2022-10-18T10:40:24.073Z,2.60
2022-10-18T10:44:36.975Z,3.53
2022-10-18T10:49:21.669Z,2.85
2022-10-18T10:53:50.640Z,2.38
2022-10-18T10:58:02.363Z,3.05
2022-10-18T11:02:13.958Z,2.40
2022-10-18T11:06:33.789Z,2.50
2022-10-18T11:10:57.307Z,3.25
2022-10-18T11:15:12.007Z,2.03
2022-10-18T11:19:39.159Z,2.20
2022-10-18T11:23:51.304Z,3.05
2022-10-18T11:28:11.361Z,2.47
2022-10-18T11:32:38.164Z,3.22
2022-10-18T11:37:29.078Z,2.53
2022-10-18T11:41:53.915Z,2.38
2022-10-18T11:46:24.002Z,2.80
2022-10-18T11:50:50.611Z,3.08
2022-10-18T11:55:10.906Z,2.97
2022-10-18T11:59:32.450Z,2.40
2022-10-18T12:04:18.049Z,1.45
2022-10-18T12:08:39.928Z,1.80
2022-10-18T12:13:02.040Z,1.55
2022-10-18T12:17:47.467Z,4.82
2022-10-18T12:22:27.963Z,1.65
2022-10-18T12:26:40.136Z,2.53
2022-10-18T12:31:02.284Z,3.35
2022-10-18T12:35:19.161Z,1.95
2022-10-18T12:39:43.835Z,2.03
2022-10-18T12:44:16.769Z,2.50
2022-10-18T12:48:43.187Z,2.28
2022-10-18T12:53:09.868Z,3.92
2022-10-18T12:57:24.347Z,2.40
2022-10-18T13:01:51.145Z,2.22
2022-10-18T13:06:06.652Z,1.95
2022-10-18T13:10:18.352Z,2.78
2022-10-18T13:14:44.132Z,3.00
2022-10-18T13:19:23.286Z,2.10
2022-10-18T13:24:28.578Z,3.47
2022-10-18T13:28:51.041Z,1.58
2022-10-18T13:33:31.361Z,1.70
2022-10-18T13:37:42.862Z,3.33
2022-10-18T13:41:57.743Z,1.55
2022-10-18T13:46:09.584Z,1.52
2022-10-18T13:50:34.128Z,1.33
2022-10-18T13:55:22.484Z,2.28
2022-10-18T14:00:11.542Z,1.00
2022-10-18T14:04:42.348Z,2.00
2022-10-18T14:09:03.355Z,1.52
2022-10-18T14:13:26.480Z,4.53
2022-10-18T14:17:46.823Z,2.35
2022-10-18T14:22:09.365Z,2.78
2022-10-18T14:26:21.002Z,4.63
2022-10-18T14:30:32.494Z,5.35
2022-10-18T14:34:44.435Z,3.30
2022-10-18T14:39:04.747Z,4.00
2022-10-18T14:43:19.860Z,3.22
2022-10-18T14:47:33.684Z,3.20
2022-10-18T14:51:49.879Z,2.72
2022-10-18T14:56:05.744Z,4.13
2022-10-18T15:00:25.721Z,3.05
2022-10-18T15:04:37.259Z,3.60
2022-10-18T15:08:54.124Z,3.22
2022-10-18T15:13:10.310Z,2.20
2022-10-18T15:17:28.418Z,1.77
2022-10-18T15:21:59.151Z,2.25
2022-10-18T15:26:24.433Z,1.02
2022-10-18T15:30:35.882Z,0.60
2022-10-18T15:34:47.486Z,1.20
2022-10-18T15:39:17.639Z,0.32
2022-10-18T15:43:29.064Z,1.13
2022-10-18T15:47:56.243Z,1.48
2022-10-18T15:52:07.745Z,3.28
2022-10-18T15:56:32.723Z,1.17
2022-10-18T16:00:45.680Z,0.55
2022-10-18T16:04:59.887Z,0.90
2022-10-18T16:09:22.789Z,2.40
2022-10-18T16:13:34.850Z,1.27
2022-10-18T16:17:47.773Z,1.75
2022-10-18T16:22:06.090Z,2.58
2022-10-18T16:26:19.741Z,5.80
2022-10-18T16:30:34.110Z,7.25
2022-10-18T16:34:45.636Z,4.45
2022-10-18T16:38:58.895Z,5.57
2022-10-18T16:43:10.676Z,5.70
2022-10-18T16:47:22.203Z,5.30
2022-10-18T16:51:33.756Z,9.95
2022-10-18T16:55:45.507Z,5.30
2022-10-18T16:59:57.298Z,6.18
2022-10-18T17:04:08.839Z,4.95
2022-10-18T17:08:23.617Z,4.68
2022-10-18T17:12:35.305Z,9.50
2022-10-18T17:16:50.758Z,5.38
2022-10-18T17:21:06.187Z,3.95
2022-10-18T17:25:18.927Z,2.95
2022-10-18T17:29:30.455Z,2.78
2022-10-18T17:33:42.226Z,3.38
2022-10-18T17:37:53.762Z,7.05
2022-10-18T17:42:05.259Z,3.47
2022-10-18T17:46:17.783Z,4.07
2022-10-18T17:50:29.379Z,2.10
2022-10-18T17:54:40.919Z,3.72
2022-10-18T17:58:52.807Z,3.30
2022-10-18T18:03:04.354Z,4.05
2022-10-18T18:07:15.865Z,6.05
2022-10-18T18:11:28.749Z,10.15
2022-10-18T18:15:40.256Z,11.48
2022-10-18T18:19:51.794Z,14.55
2022-10-18T18:24:03.480Z,6.55
2022-10-18T18:28:15.539Z,7.07
2022-10-18T18:32:27.071Z,7.40
2022-10-18T18:36:39.167Z,5.53
2022-10-18T18:40:50.855Z,7.20
2022-10-18T18:45:02.572Z,8.88
2022-10-18T18:49:14.236Z,10.68
2022-10-18T18:53:28.689Z,13.43
2022-10-18T18:57:41.475Z,9.85
2022-10-18T19:01:53.105Z,9.82
2022-10-18T19:06:06.817Z,6.05
2022-10-18T19:10:18.327Z,7.18
2022-10-18T19:14:29.845Z,11.57
2022-10-18T19:18:41.334Z,11.00
2022-10-18T19:22:53.560Z,10.10
2022-10-18T19:27:12.569Z,8.02
2022-10-18T19:31:24.304Z,7.88
2022-10-18T19:35:35.839Z,6.07
2022-10-18T19:39:47.323Z,7.88
2022-10-18T19:43:58.842Z,8.25
2022-10-18T19:48:13.325Z,10.45
2022-10-18T19:52:25.097Z,12.45
2022-10-18T19:56:36.616Z,10.45
2022-10-18T20:00:52.806Z,12.93
2022-10-18T20:05:04.721Z,11.90
2022-10-18T20:09:19.575Z,9.45
2022-10-18T20:13:32.866Z,9.77
2022-10-18T20:17:44.455Z,10.52
2022-10-18T20:21:57.590Z,11.75
2022-10-18T20:26:18.018Z,12.30
2022-10-18T20:30:31.478Z,15.27
2022-10-18T20:34:42.963Z,11.50
2022-10-18T20:38:54.986Z,11.27
2022-10-18T20:43:06.583Z,13.57
2022-10-18T20:47:18.111Z,12.35
2022-10-18T20:51:29.703Z,9.45
2022-10-18T20:55:42.696Z,8.63
2022-10-18T20:59:54.216Z,9.60
2022-10-18T21:04:08.870Z,10.07
2022-10-18T21:08:20.359Z,10.20
2022-10-18T21:12:32.155Z,7.70
2022-10-18T21:16:44.121Z,8.73
2022-10-18T21:20:55.871Z,6.97
2022-10-18T21:25:08.022Z,9.38
2022-10-18T21:29:22.176Z,6.18
